Coremas, Brazil
Current Conditions -  °F | °C
As of 1:00 AM on Thursday 23 Oct 2014 (Local Time) from SBJU Reporting Station
Few Clouds Few Clouds  
Wind Chill: 86°   Ceiling: Unl
Heat Index: 87°   Visibility: 6mi
Dew Point: 63°   Wind: 7mph
Humidity: 45%   Direction: 150°SSE
Pressure: 30.03"   Gusts: NA
Location:  7.01°S, 37.95°W
Report Text: SBJU 230400Z 15006KT 9999 FEW020 30/17 Q1017
Loading
Personal Weather Stations






























Interactive Weather Map New forecast layout! Learn more

10-Day Weather Forecast

Advertisements
Track Severe Weather on mobile